createdAt,value
2017-12-27T00:00:50.081Z,0
2017-12-27T00:01:50.128Z,0
2017-12-27T00:02:49.864Z,0
2017-12-27T00:03:50.179Z,0
2017-12-27T00:04:49.894Z,0
2017-12-27T00:05:50.177Z,0
2017-12-27T00:06:49.931Z,0
2017-12-27T00:07:49.687Z,0
2017-12-27T00:08:50.431Z,0
2017-12-27T00:09:50.506Z,0
2017-12-27T00:10:50.241Z,0
2017-12-27T00:11:50.252Z,0
2017-12-27T00:12:49.768Z,0
2017-12-27T00:13:50.550Z,0
2017-12-27T00:14:50.300Z,0
2017-12-27T00:15:50.049Z,0
2017-12-27T00:16:50.332Z,0
2017-12-27T00:17:50.075Z,0
2017-12-27T00:18:50.175Z,0
2017-12-27T00:19:50.082Z,0
2017-12-27T00:20:50.620Z,0
2017-12-27T00:21:50.656Z,0
2017-12-27T00:22:50.129Z,0
2017-12-27T00:23:50.417Z,0
2017-12-27T00:24:49.914Z,0
2017-12-27T00:25:50.682Z,0
2017-12-27T00:26:50.198Z,0
2017-12-27T00:27:50.490Z,0
2017-12-27T00:28:50.726Z,0
2017-12-27T00:29:50.505Z,0
2017-12-27T00:30:50.746Z,0
2017-12-27T00:31:50.507Z,0
2017-12-27T00:32:50.282Z,0
2017-12-27T00:33:50.887Z,0
2017-12-27T00:34:50.566Z,0
2017-12-27T00:35:50.316Z,0
2017-12-27T00:36:50.589Z,0
2017-12-27T00:37:50.358Z,0
2017-12-27T00:38:50.360Z,0
2017-12-27T00:39:50.629Z,0
2017-12-27T00:40:50.385Z,0
2017-12-27T00:41:50.654Z,0
2017-12-27T00:42:50.682Z,0
2017-12-27T00:43:50.682Z,0
2017-12-27T00:44:50.444Z,0
2017-12-27T00:45:50.962Z,0
2017-12-27T00:46:50.476Z,0
2017-12-27T00:47:50.996Z,0
2017-12-27T00:48:51.062Z,0
2017-12-27T00:49:50.516Z,0
2017-12-27T00:50:50.556Z,0
2017-12-27T00:51:50.805Z,0
2017-12-27T00:52:51.106Z,0
2017-12-27T00:53:50.832Z,0
2017-12-27T00:54:50.842Z,0
2017-12-27T00:55:51.112Z,0
2017-12-27T00:56:50.876Z,0
2017-12-27T00:57:50.886Z,0
2017-12-27T00:58:50.904Z,0
2017-12-27T00:59:51.170Z,0
2017-12-27T01:00:50.929Z,0
2017-12-27T01:01:50.948Z,0
2017-12-27T01:02:50.962Z,0
2017-12-27T01:03:51.277Z,0
2017-12-27T01:04:50.743Z,0
2017-12-27T01:05:50.752Z,0
2017-12-27T01:06:51.017Z,0
2017-12-27T01:07:51.284Z,0
2017-12-27T01:08:51.051Z,0
2017-12-27T01:09:50.813Z,0
2017-12-27T01:10:51.080Z,0
2017-12-27T01:11:50.851Z,0
2017-12-27T01:12:51.110Z,0
2017-12-27T01:13:51.127Z,0
2017-12-27T01:14:51.134Z,0
2017-12-27T01:15:50.918Z,0
2017-12-27T01:16:51.414Z,0
2017-12-27T01:17:50.929Z,0
2017-12-27T01:18:51.249Z,0
2017-12-27T01:19:51.461Z,0
2017-12-27T01:20:51.224Z,0
2017-12-27T01:21:51.240Z,0
2017-12-27T01:22:51.249Z,0
2017-12-27T01:23:51.016Z,0
2017-12-27T01:24:51.283Z,0
2017-12-27T01:25:51.544Z,0
2017-12-27T01:26:51.056Z,0
2017-12-27T01:27:51.323Z,0
2017-12-27T01:28:51.083Z,0
2017-12-27T01:29:51.099Z,0
2017-12-27T01:30:51.620Z,0
2017-12-27T01:31:51.381Z,0
2017-12-27T01:32:51.410Z,0
2017-12-27T01:33:50.956Z,0
2017-12-27T01:34:51.678Z,0
2017-12-27T01:35:51.706Z,0
2017-12-27T01:36:51.457Z,0
2017-12-27T01:37:51.469Z,0
2017-12-27T01:38:51.232Z,0
2017-12-27T01:39:51.507Z,0
2017-12-27T01:40:51.520Z,0
2017-12-27T01:41:51.529Z,0
2017-12-27T01:42:51.795Z,0
2017-12-27T01:43:51.559Z,0
2017-12-27T01:44:51.849Z,0
2017-12-27T01:45:51.332Z,0
2017-12-27T01:46:51.605Z,0
2017-12-27T01:47:51.363Z,0
2017-12-27T01:48:51.627Z,0
2017-12-27T01:49:51.393Z,0
2017-12-27T01:50:51.469Z,0
2017-12-27T01:51:51.925Z,0
2017-12-27T01:52:51.946Z,0
2017-12-27T01:53:51.705Z,0
2017-12-27T01:54:51.465Z,0
2017-12-27T01:55:51.732Z,0
2017-12-27T01:56:51.500Z,0
2017-12-27T01:57:51.791Z,0
2017-12-27T01:58:52.028Z,0
2017-12-27T01:59:51.545Z,0
2017-12-27T02:00:51.806Z,0
2017-12-27T02:01:51.574Z,0
2017-12-27T02:02:51.584Z,0
2017-12-27T02:03:51.855Z,0
2017-12-27T02:04:51.865Z,0
2017-12-27T02:05:51.674Z,0
2017-12-27T02:06:51.641Z,0
2017-12-27T02:07:51.661Z,0
2017-12-27T02:08:51.928Z,0
2017-12-27T02:09:51.686Z,0
2017-12-27T02:10:51.698Z,0
2017-12-27T02:11:51.704Z,0
2017-12-27T02:12:51.983Z,0
2017-12-27T02:13:51.759Z,0
2017-12-27T02:14:51.762Z,0
2017-12-27T02:15:52.026Z,0
2017-12-27T02:16:52.039Z,0
2017-12-27T02:17:51.812Z,0
2017-12-27T02:18:51.570Z,0
2017-12-27T02:19:52.035Z,0
2017-12-27T02:20:52.148Z,0
2017-12-27T02:21:52.127Z,0
2017-12-27T02:22:51.873Z,0
2017-12-27T02:23:51.890Z,0
2017-12-27T02:24:52.412Z,0
2017-12-27T02:25:51.918Z,0
2017-12-27T02:26:51.935Z,0
2017-12-27T02:27:52.200Z,0
2017-12-27T02:28:52.489Z,0
2017-12-27T02:29:51.977Z,0
2017-12-27T02:30:52.262Z,0
2017-12-27T02:31:52.261Z,0
2017-12-27T02:32:52.274Z,0
2017-12-27T02:33:52.287Z,0
2017-12-27T02:34:52.303Z,0
2017-12-27T02:35:52.118Z,0
2017-12-27T02:36:52.084Z,0
2017-12-27T02:37:52.354Z,0
2017-12-27T02:38:52.370Z,0
2017-12-27T02:39:52.390Z,0
2017-12-27T02:40:52.134Z,0
2017-12-27T02:41:52.417Z,0
2017-12-27T02:42:52.435Z,0
2017-12-27T02:43:52.432Z,0
2017-12-27T02:44:52.699Z,0
2017-12-27T02:45:52.710Z,0
2017-12-27T02:46:52.473Z,0
2017-12-27T02:47:52.752Z,0
2017-12-27T02:48:52.258Z,0
2017-12-27T02:49:52.773Z,0
2017-12-27T02:50:52.734Z,0
2017-12-27T02:51:52.565Z,0
2017-12-27T02:52:52.310Z,0
2017-12-27T02:53:52.328Z,0
2017-12-27T02:54:52.599Z,0
2017-12-27T02:55:52.356Z,0
2017-12-27T02:56:52.870Z,0
2017-12-27T02:57:52.389Z,0
2017-12-27T02:58:52.397Z,0
2017-12-27T02:59:52.413Z,0
2017-12-27T03:00:52.676Z,0
2017-12-27T03:01:52.443Z,0
2017-12-27T03:02:52.454Z,0
2017-12-27T03:03:52.721Z,0
2017-12-27T03:04:52.485Z,0
2017-12-27T03:05:52.796Z,0
2017-12-27T03:06:52.513Z,0
2017-12-27T03:07:52.837Z,0
2017-12-27T03:08:52.791Z,0
2017-12-27T03:09:52.803Z,0
2017-12-27T03:10:52.566Z,0
2017-12-27T03:11:53.099Z,0
2017-12-27T03:12:52.847Z,0
2017-12-27T03:13:53.113Z,0
2017-12-27T03:14:52.980Z,0
2017-12-27T03:15:52.386Z,0
2017-12-27T03:16:53.178Z,0
2017-12-27T03:17:52.916Z,0
2017-12-27T03:18:52.937Z,0
2017-12-27T03:19:52.954Z,0
2017-12-27T03:20:53.271Z,0
2017-12-27T03:21:52.977Z,0
2017-12-27T03:22:52.991Z,0
2017-12-27T03:23:52.750Z,0
2017-12-27T03:24:52.769Z,0
2017-12-27T03:25:53.034Z,0
2017-12-27T03:26:52.800Z,0
2017-12-27T03:27:53.064Z,0
2017-12-27T03:28:52.830Z,0
2017-12-27T03:29:53.096Z,0
2017-12-27T03:30:53.103Z,0
2017-12-27T03:31:53.187Z,0
2017-12-27T03:32:53.134Z,0
2017-12-27T03:33:52.899Z,0
2017-12-27T03:34:53.416Z,0
2017-12-27T03:35:53.227Z,0
2017-12-27T03:36:53.440Z,0
2017-12-27T03:37:53.199Z,0
2017-12-27T03:38:53.221Z,0
2017-12-27T03:39:53.228Z,0
2017-12-27T03:40:53.014Z,0
2017-12-27T03:41:53.259Z,0
2017-12-27T03:42:53.308Z,0
2017-12-27T03:43:53.294Z,0
2017-12-27T03:44:53.565Z,0
2017-12-27T03:45:53.316Z,0
2017-12-27T03:46:53.329Z,0
2017-12-27T03:47:53.345Z,0
2017-12-27T03:48:53.130Z,0
2017-12-27T03:49:53.369Z,0
2017-12-27T03:50:53.386Z,0
2017-12-27T03:51:53.149Z,0
2017-12-27T03:52:53.410Z,0
2017-12-27T03:53:53.678Z,0
2017-12-27T03:54:53.188Z,0
2017-12-27T03:55:53.453Z,0
2017-12-27T03:56:53.471Z,0
2017-12-27T03:57:53.486Z,0
2017-12-27T03:58:53.751Z,0
2017-12-27T03:59:53.512Z,0
2017-12-27T04:00:53.269Z,0
2017-12-27T04:01:53.540Z,0
2017-12-27T04:02:53.549Z,0
2017-12-27T04:03:53.813Z,0
2017-12-27T04:04:53.832Z,0
2017-12-27T04:05:53.592Z,0
2017-12-27T04:06:53.617Z,0
2017-12-27T04:07:53.925Z,0
2017-12-27T04:08:53.668Z,0
2017-12-27T04:09:53.652Z,0
2017-12-27T04:10:53.160Z,0
2017-12-27T04:11:53.928Z,0
2017-12-27T04:12:53.698Z,0
2017-12-27T04:13:53.455Z,0
2017-12-27T04:14:53.718Z,0
2017-12-27T04:15:53.983Z,0
2017-12-27T04:16:54.000Z,0
2017-12-27T04:17:53.763Z,0
2017-12-27T04:18:53.773Z,0
2017-12-27T04:19:53.785Z,0
2017-12-27T04:20:53.805Z,0
2017-12-27T04:21:54.067Z,0
2017-12-27T04:22:55.078Z,0
2017-12-27T04:23:54.098Z,0
2017-12-27T04:24:53.854Z,0
2017-12-27T04:25:53.617Z,0
2017-12-27T04:26:54.136Z,0
2017-12-27T04:27:53.900Z,0
2017-12-27T04:28:53.657Z,0
2017-12-27T04:29:54.173Z,0
2017-12-27T04:30:53.685Z,0
2017-12-27T04:31:53.450Z,0
2017-12-27T04:32:53.716Z,0
2017-12-27T04:33:53.982Z,0
2017-12-27T04:34:54.005Z,0
2017-12-27T04:35:54.260Z,0
2017-12-27T04:36:54.273Z,0
2017-12-27T04:37:53.831Z,0
2017-12-27T04:38:54.049Z,0
2017-12-27T04:39:54.060Z,0
2017-12-27T04:40:54.333Z,0
2017-12-27T04:41:54.334Z,0
2017-12-27T04:42:53.851Z,0
2017-12-27T04:43:54.114Z,0
2017-12-27T04:44:54.132Z,0
2017-12-27T04:45:54.143Z,0
2017-12-27T04:46:53.900Z,0
2017-12-27T04:47:54.420Z,0
2017-12-27T04:48:54.183Z,0
2017-12-27T04:49:54.196Z,0
2017-12-27T04:50:54.219Z,0
2017-12-27T04:51:54.231Z,0
2017-12-27T04:52:54.541Z,0
2017-12-27T04:53:54.250Z,0
2017-12-27T04:54:54.515Z,0
2017-12-27T04:55:54.028Z,0
2017-12-27T04:56:54.294Z,0
2017-12-27T04:57:54.054Z,0
2017-12-27T04:58:54.319Z,0
2017-12-27T04:59:54.082Z,0
2017-12-27T05:00:54.098Z,0
2017-12-27T05:01:54.359Z,0
2017-12-27T05:02:54.374Z,0
2017-12-27T05:03:54.140Z,0
2017-12-27T05:04:54.648Z,0
2017-12-27T05:05:54.671Z,0
2017-12-27T05:06:54.178Z,0
2017-12-27T05:07:54.496Z,0
2017-12-27T05:08:54.458Z,0
2017-12-27T05:09:54.468Z,0
2017-12-27T05:10:54.738Z,0
2017-12-27T05:11:54.752Z,0
2017-12-27T05:12:54.511Z,0
2017-12-27T05:13:54.022Z,0
2017-12-27T05:14:54.547Z,0
2017-12-27T05:15:54.805Z,0
2017-12-27T05:16:54.817Z,0
2017-12-27T05:17:54.582Z,0
2017-12-27T05:18:54.345Z,0
2017-12-27T05:19:54.366Z,0
2017-12-27T05:20:54.876Z,0
2017-12-27T05:21:54.403Z,0
2017-12-27T05:22:54.702Z,0
2017-12-27T05:23:54.917Z,0
2017-12-27T05:24:54.676Z,0
2017-12-27T05:25:54.700Z,0
2017-12-27T05:26:54.705Z,0
2017-12-27T05:27:54.968Z,0
2017-12-27T05:28:54.480Z,0
2017-12-27T05:29:55.010Z,0
2017-12-27T05:30:54.761Z,0
2017-12-27T05:31:54.519Z,0
2017-12-27T05:32:54.285Z,0
2017-12-27T05:33:54.805Z,0
2017-12-27T05:34:54.826Z,0
2017-12-27T05:35:54.828Z,0
2017-12-27T05:36:54.592Z,0
2017-12-27T05:37:54.378Z,0
2017-12-27T05:38:54.894Z,0
2017-12-27T05:39:55.147Z,0
2017-12-27T05:40:54.894Z,0
2017-12-27T05:41:54.661Z,0
2017-12-27T05:42:54.675Z,0
2017-12-27T05:43:54.434Z,0
2017-12-27T05:44:54.699Z,0
2017-12-27T05:45:54.963Z,0
2017-12-27T05:46:55.225Z,0
2017-12-27T05:47:54.744Z,0
2017-12-27T05:48:54.503Z,0
2017-12-27T05:49:55.021Z,0
2017-12-27T05:50:54.531Z,0
2017-12-27T05:51:54.799Z,0
2017-12-27T05:52:54.808Z,0
2017-12-27T05:53:54.825Z,0
2017-12-27T05:54:55.349Z,0
2017-12-27T05:55:54.853Z,0
2017-12-27T05:56:55.117Z,0
2017-12-27T05:57:54.887Z,0
2017-12-27T05:58:54.888Z,0
2017-12-27T05:59:54.902Z,0
2017-12-27T06:00:55.174Z,0
2017-12-27T06:01:55.183Z,0
2017-12-27T06:02:55.453Z,0
2017-12-27T06:03:55.212Z,0
2017-12-27T06:04:55.475Z,0
2017-12-27T06:05:55.235Z,0
2017-12-27T06:06:55.504Z,0
2017-12-27T06:07:55.516Z,0
2017-12-27T06:08:54.781Z,0
2017-12-27T06:09:55.043Z,0
2017-12-27T06:10:55.312Z,0
2017-12-27T06:11:55.573Z,0
2017-12-27T06:12:55.333Z,0
2017-12-27T06:13:55.345Z,0
2017-12-27T06:14:55.115Z,0
2017-12-27T06:15:55.125Z,0
2017-12-27T06:16:55.138Z,0
2017-12-27T06:17:55.402Z,0
2017-12-27T06:18:54.912Z,0
2017-12-27T06:19:55.684Z,0
2017-12-27T06:20:54.944Z,0
2017-12-27T06:21:55.509Z,0
2017-12-27T06:22:54.970Z,0
2017-12-27T06:23:55.534Z,0
2017-12-27T06:24:55.495Z,0
2017-12-27T06:25:55.768Z,0
2017-12-27T06:26:55.529Z,0
2017-12-27T06:27:55.789Z,0
2017-12-27T06:28:55.301Z,0
2017-12-27T06:29:55.568Z,0
2017-12-27T06:30:55.579Z,0
2017-12-27T06:31:55.598Z,0
2017-12-27T06:32:55.860Z,0
2017-12-27T06:33:55.372Z,0
2017-12-27T06:34:55.634Z,0
2017-12-27T06:35:55.654Z,0
2017-12-27T06:36:55.412Z,0
2017-12-27T06:37:55.432Z,0
2017-12-27T06:38:55.189Z,4
2017-12-27T06:39:55.455Z,4
2017-12-27T06:40:55.771Z,0
2017-12-27T06:41:55.231Z,4
2017-12-27T06:42:55.502Z,4
2017-12-27T06:43:55.510Z,4
2017-12-27T06:44:55.781Z,4
2017-12-27T06:45:55.538Z,4
2017-12-27T06:46:55.555Z,8
2017-12-27T06:47:55.566Z,8
2017-12-27T06:48:55.584Z,8
2017-12-27T06:49:55.882Z,12
2017-12-27T06:50:55.862Z,12
2017-12-27T06:51:55.623Z,16
2017-12-27T06:52:55.891Z,16
2017-12-27T06:53:55.906Z,20
2017-12-27T06:54:55.662Z,20
2017-12-27T06:55:56.080Z,24
2017-12-27T06:56:55.694Z,28
2017-12-27T06:57:55.965Z,32
2017-12-27T06:58:56.229Z,32
2017-12-27T06:59:56.016Z,32
2017-12-27T07:00:56.023Z,36
2017-12-27T07:01:55.760Z,40
2017-12-27T07:02:55.785Z,40
2017-12-27T07:03:56.041Z,48
2017-12-27T07:04:56.308Z,52
2017-12-27T07:05:55.819Z,56
2017-12-27T07:06:55.845Z,60
2017-12-27T07:07:56.102Z,68
2017-12-27T07:08:56.109Z,80
2017-12-27T07:09:56.126Z,92
2017-12-27T07:10:56.192Z,100
2017-12-27T07:11:56.157Z,112
2017-12-27T07:12:56.176Z,124
2017-12-27T07:13:56.184Z,132
2017-12-27T07:14:56.204Z,140
2017-12-27T07:15:55.957Z,148
2017-12-27T07:16:55.981Z,156
2017-12-27T07:17:56.541Z,160
2017-12-27T07:18:56.252Z,172
2017-12-27T07:19:56.281Z,180
2017-12-27T07:20:56.032Z,192
2017-12-27T07:21:56.044Z,200
2017-12-27T07:22:56.306Z,216
2017-12-27T07:23:56.328Z,228
2017-12-27T07:24:56.334Z,244
2017-12-27T07:25:56.148Z,264
2017-12-27T07:26:56.366Z,284
2017-12-27T07:27:56.137Z,308
2017-12-27T07:28:56.642Z,340
2017-12-27T07:29:56.158Z,372
2017-12-27T07:30:56.419Z,412
2017-12-27T07:31:56.461Z,452
2017-12-27T07:32:56.195Z,492
2017-12-27T07:33:56.210Z,528
2017-12-27T07:34:56.536Z,568
2017-12-27T07:35:56.493Z,600
2017-12-27T07:36:56.510Z,628
2017-12-27T07:37:56.524Z,656
2017-12-27T07:38:56.538Z,676
2017-12-27T07:39:56.551Z,692
2017-12-27T07:40:56.318Z,704
2017-12-27T07:41:56.635Z,716
2017-12-27T07:42:56.586Z,728
2017-12-27T07:43:56.607Z,744
2017-12-27T07:44:56.872Z,756
2017-12-27T07:45:56.889Z,768
2017-12-27T07:46:56.650Z,780
2017-12-27T07:47:56.410Z,788
2017-12-27T07:48:56.426Z,800
2017-12-27T07:49:56.690Z,812
2017-12-27T07:50:56.953Z,824
2017-12-27T07:51:56.721Z,828
2017-12-27T07:52:56.482Z,836
2017-12-27T07:53:56.749Z,852
2017-12-27T07:54:56.516Z,868
2017-12-27T07:55:56.525Z,876
2017-12-27T07:56:56.840Z,884
2017-12-27T07:57:56.576Z,892
2017-12-27T07:58:57.129Z,904
2017-12-27T07:59:56.584Z,916
2017-12-27T08:00:56.850Z,936
2017-12-27T08:01:56.865Z,952
2017-12-27T08:02:56.879Z,968
2017-12-27T08:03:57.156Z,1000
2017-12-27T08:04:56.681Z,1036
2017-12-27T08:05:56.928Z,1076
2017-12-27T08:06:56.944Z,1112
2017-12-27T08:07:56.953Z,1140
2017-12-27T08:08:57.218Z,1156
2017-12-27T08:09:57.226Z,1188
2017-12-27T08:10:56.993Z,1224
2017-12-27T08:11:57.070Z,1240
2017-12-27T08:12:56.773Z,1248
2017-12-27T08:13:56.788Z,1236
2017-12-27T08:14:56.806Z,1224
2017-12-27T08:15:57.070Z,1220
2017-12-27T08:16:56.831Z,1220
2017-12-27T08:17:56.845Z,1212
2017-12-27T08:18:57.119Z,1220
2017-12-27T08:19:57.379Z,1232
2017-12-27T08:20:57.139Z,1236
2017-12-27T08:21:56.652Z,1244
2017-12-27T08:22:56.918Z,1248
2017-12-27T08:23:57.189Z,1268
2017-12-27T08:24:57.206Z,1288
2017-12-27T08:25:57.468Z,1320
2017-12-27T08:26:57.278Z,1348
2017-12-27T08:27:57.242Z,1376
2017-12-27T08:28:57.518Z,1400
2017-12-27T08:29:57.047Z,1416
2017-12-27T08:30:57.283Z,1424
2017-12-27T08:31:57.365Z,1432
2017-12-27T08:32:56.816Z,1432
2017-12-27T08:33:57.333Z,1420
2017-12-27T08:34:57.098Z,1400
2017-12-27T08:35:57.118Z,1376
2017-12-27T08:36:57.224Z,1356
2017-12-27T08:37:57.138Z,1332
2017-12-27T08:38:57.154Z,1320
2017-12-27T08:39:57.174Z,1312
2017-12-27T08:40:57.184Z,1316
2017-12-27T08:41:57.757Z,1328
2017-12-27T08:42:57.215Z,1356
2017-12-27T08:43:57.742Z,1408
2017-12-27T08:44:57.499Z,1472
2017-12-27T08:45:57.765Z,1576
2017-12-27T08:46:57.785Z,1708
2017-12-27T08:47:57.545Z,1868
2017-12-27T08:48:57.808Z,2068
2017-12-27T08:49:57.824Z,2276
2017-12-27T08:50:57.585Z,2480
2017-12-27T08:51:57.859Z,2608
2017-12-27T08:52:57.615Z,2660
2017-12-27T08:53:57.632Z,2664
2017-12-27T08:54:57.896Z,2672
2017-12-27T08:55:57.413Z,2704
2017-12-27T08:56:57.981Z,2760
2017-12-27T08:57:57.439Z,2828
2017-12-27T08:58:57.709Z,2908
2017-12-27T08:59:57.715Z,3016
2017-12-27T09:00:57.483Z,3132
2017-12-27T09:01:57.813Z,3244
2017-12-27T09:02:57.761Z,3352
2017-12-27T09:03:58.035Z,3476
2017-12-27T09:04:57.873Z,3612
2017-12-27T09:05:57.812Z,3724
2017-12-27T09:06:58.079Z,3796
2017-12-27T09:07:57.846Z,3852
2017-12-27T09:08:57.858Z,3880
2017-12-27T09:09:58.135Z,3864
2017-12-27T09:10:57.890Z,3788
2017-12-27T09:11:57.911Z,3704
2017-12-27T09:12:57.917Z,3628
2017-12-27T09:13:57.428Z,3560
2017-12-27T09:14:57.946Z,3512
2017-12-27T09:15:57.717Z,3488
2017-12-27T09:16:57.996Z,3468
2017-12-27T09:17:58.242Z,3472
2017-12-27T09:18:57.760Z,3484
2017-12-27T09:19:58.024Z,3532
2017-12-27T09:20:58.140Z,3624
2017-12-27T09:21:57.801Z,3748
2017-12-27T09:22:58.066Z,3884
2017-12-27T09:23:58.086Z,4016
2017-12-27T09:24:58.102Z,4136
2017-12-27T09:25:57.865Z,4236
2017-12-27T09:26:57.629Z,4316
2017-12-27T09:27:57.946Z,4380
2017-12-27T09:28:57.908Z,4440
2017-12-27T09:29:57.922Z,4492
2017-12-27T09:30:57.942Z,4528
2017-12-27T09:31:58.461Z,4592
2017-12-27T09:32:57.968Z,4644
2017-12-27T09:33:58.242Z,4684
2017-12-27T09:34:58.564Z,4712
2017-12-27T09:35:58.259Z,4724
2017-12-27T09:36:58.578Z,4720
2017-12-27T09:37:58.136Z,4700
2017-12-27T09:38:58.311Z,4660
2017-12-27T09:39:58.333Z,4620
2017-12-27T09:40:58.342Z,4588
2017-12-27T09:41:58.365Z,4564
2017-12-27T09:42:58.691Z,4540
2017-12-27T09:43:58.138Z,4496
2017-12-27T09:44:58.400Z,4420
2017-12-27T09:45:58.417Z,4308
2017-12-27T09:46:58.440Z,4196
2017-12-27T09:47:58.197Z,4072
2017-12-27T09:48:58.212Z,4020
2017-12-27T09:49:58.487Z,3968
2017-12-27T09:50:57.990Z,3968
2017-12-27T09:51:58.512Z,4104
2017-12-27T09:52:58.528Z,4384
2017-12-27T09:53:58.289Z,4744
2017-12-27T09:54:58.303Z,5172
2017-12-27T09:55:58.569Z,5632
2017-12-27T09:56:58.582Z,6156
2017-12-27T09:57:58.396Z,7384
2017-12-27T09:58:58.361Z,10180
2017-12-27T09:59:58.631Z,12552
2017-12-27T10:00:58.647Z,11956
2017-12-27T10:01:58.656Z,10176
2017-12-27T10:02:58.418Z,8768
2017-12-27T10:03:58.690Z,9736
2017-12-27T10:04:58.966Z,8064
2017-12-27T10:05:58.721Z,8256
2017-12-27T10:06:58.483Z,8540
2017-12-27T10:07:58.998Z,9372
2017-12-27T10:08:58.761Z,11000
2017-12-27T10:09:58.786Z,13368
2017-12-27T10:10:58.802Z,13436
2017-12-27T10:11:58.814Z,15712
2017-12-27T10:12:58.898Z,26848
2017-12-27T10:13:58.390Z,28288
2017-12-27T10:14:58.872Z,29408
2017-12-27T10:15:58.874Z,18720
2017-12-27T10:16:58.904Z,20160
2017-12-27T10:17:59.165Z,16160
2017-12-27T10:18:59.178Z,13096
2017-12-27T10:19:58.447Z,12352
2017-12-27T10:20:58.459Z,11524
2017-12-27T10:21:58.981Z,11740
2017-12-27T10:22:59.253Z,10648
2017-12-27T10:23:58.612Z,11436
2017-12-27T10:24:59.031Z,10468
2017-12-27T10:25:59.305Z,13756
2017-12-27T10:26:59.064Z,13360
2017-12-27T10:27:58.953Z,13772
2017-12-27T10:28:59.402Z,12888
2017-12-27T10:29:59.375Z,10284
2017-12-27T10:30:59.409Z,10248
2017-12-27T10:31:59.173Z,10648
2017-12-27T10:32:59.170Z,9836
2017-12-27T10:33:58.687Z,11716
2017-12-27T10:34:59.205Z,11760
2017-12-27T10:35:58.975Z,11528
2017-12-27T10:36:59.244Z,15360
2017-12-27T10:37:59.006Z,16576
2017-12-27T10:38:59.533Z,19968
2017-12-27T10:39:59.304Z,21856
2017-12-27T10:40:59.067Z,22880
2017-12-27T10:41:59.336Z,14912
2017-12-27T10:42:59.601Z,25824
2017-12-27T10:43:59.569Z,24512
2017-12-27T10:44:59.411Z,21536
2017-12-27T10:45:59.401Z,12692
2017-12-27T10:46:59.168Z,9804
2017-12-27T10:47:59.441Z,7572
2017-12-27T10:48:59.479Z,6560
2017-12-27T10:49:59.808Z,6264
2017-12-27T10:50:59.495Z,5876
2017-12-27T10:51:59.517Z,5324
2017-12-27T10:52:59.535Z,4856
2017-12-27T10:53:59.810Z,4560
2017-12-27T10:54:59.581Z,4392
2017-12-27T10:55:59.080Z,4280
2017-12-27T10:56:59.351Z,4276
2017-12-27T10:57:59.879Z,4352
2017-12-27T10:58:59.687Z,4464
2017-12-27T10:59:59.658Z,4556
2017-12-27T11:00:59.673Z,4620
2017-12-27T11:01:59.940Z,4636
2017-12-27T11:02:59.459Z,4596
2017-12-27T11:03:59.982Z,4516
2017-12-27T11:04:59.490Z,4372
2017-12-27T11:06:00.016Z,4208
2017-12-27T11:06:59.776Z,4088
2017-12-27T11:07:59.288Z,4000
2017-12-27T11:08:59.814Z,3924
2017-12-27T11:09:59.830Z,3868
2017-12-27T11:10:59.846Z,3784
2017-12-27T11:11:59.857Z,3744
2017-12-27T11:13:00.132Z,3740
2017-12-27T11:13:59.686Z,3752
2017-12-27T11:14:59.651Z,3760
2017-12-27T11:16:00.176Z,3772
2017-12-27T11:17:00.198Z,3784
2017-12-27T11:17:59.449Z,3824
2017-12-27T11:19:00.269Z,3896
2017-12-27T11:20:00.239Z,3980
2017-12-27T11:20:59.755Z,4020
2017-12-27T11:22:00.021Z,3996
2017-12-27T11:23:00.291Z,3928
2017-12-27T11:24:00.057Z,3820
2017-12-27T11:25:00.068Z,3688
2017-12-27T11:26:00.339Z,3564
2017-12-27T11:26:59.845Z,3480
2017-12-27T11:28:00.116Z,3420
2017-12-27T11:28:59.929Z,3368
2017-12-27T11:30:00.147Z,3320
2017-12-27T11:31:00.166Z,3268
2017-12-27T11:32:00.429Z,3224
2017-12-27T11:33:00.199Z,3164
2017-12-27T11:33:59.971Z,3080
2017-12-27T11:35:00.222Z,2972
2017-12-27T11:35:59.739Z,2844
2017-12-27T11:37:00.258Z,2728
2017-12-27T11:38:00.024Z,2648
2017-12-27T11:39:00.289Z,2600
2017-12-27T11:40:00.307Z,2580
2017-12-27T11:41:00.072Z,2596
2017-12-27T11:42:00.084Z,2632
2017-12-27T11:43:00.609Z,2676
2017-12-27T11:44:00.170Z,2732
2017-12-27T11:45:00.450Z,2800
2017-12-27T11:46:00.405Z,2876
2017-12-27T11:47:00.670Z,2948
2017-12-27T11:48:00.180Z,3028
2017-12-27T11:49:00.452Z,3116
2017-12-27T11:50:00.215Z,3224
2017-12-27T11:51:00.734Z,3384
2017-12-27T11:52:00.752Z,3660
2017-12-27T11:53:00.518Z,4344
2017-12-27T11:54:00.787Z,5572
2017-12-27T11:55:00.555Z,18432
2017-12-27T11:56:00.332Z,20352
2017-12-27T11:57:00.837Z,18144
2017-12-27T11:58:00.597Z,21568
2017-12-27T11:59:00.681Z,25024
2017-12-27T12:00:00.628Z,18944
2017-12-27T12:01:00.898Z,13252
2017-12-27T12:02:00.411Z,10180
2017-12-27T12:03:00.943Z,5956
2017-12-27T12:04:00.702Z,5648
2017-12-27T12:05:00.207Z,5800
2017-12-27T12:06:00.745Z,6272
2017-12-27T12:07:00.747Z,6432
2017-12-27T12:08:01.019Z,6408
2017-12-27T12:09:00.786Z,7212
2017-12-27T12:10:01.073Z,6988
2017-12-27T12:11:01.063Z,7568
2017-12-27T12:12:00.589Z,9252
2017-12-27T12:13:00.593Z,15520
2017-12-27T12:14:01.174Z,31264
2017-12-27T12:15:00.880Z,42624
2017-12-27T12:16:00.923Z,46560
2017-12-27T12:17:01.171Z,37728
2017-12-27T12:18:00.933Z,42080
2017-12-27T12:19:00.954Z,20992
2017-12-27T12:20:01.237Z,16736
2017-12-27T12:21:00.987Z,19296
2017-12-27T12:22:01.267Z,22240
2017-12-27T12:23:00.780Z,23264
2017-12-27T12:24:01.295Z,23008
2017-12-27T12:25:00.814Z,21952
2017-12-27T12:26:01.087Z,22432
2017-12-27T12:27:01.101Z,22240
2017-12-27T12:28:01.127Z,20512
2017-12-27T12:29:01.191Z,19808
2017-12-27T12:30:01.411Z,19872
2017-12-27T12:31:00.929Z,16928
2017-12-27T12:32:01.199Z,16096
2017-12-27T12:33:01.223Z,12236
2017-12-27T12:34:01.016Z,8888
2017-12-27T12:35:01.269Z,7840
2017-12-27T12:36:01.281Z,7328
2017-12-27T12:37:01.551Z,6864
2017-12-27T12:38:01.331Z,5852
2017-12-27T12:39:01.343Z,5396
2017-12-27T12:40:01.106Z,5440
2017-12-27T12:41:01.175Z,7356
2017-12-27T12:42:01.142Z,8000
2017-12-27T12:43:01.667Z,8448
2017-12-27T12:44:01.738Z,6268
2017-12-27T12:45:01.207Z,5536
2017-12-27T12:46:01.468Z,5624
2017-12-27T12:47:01.494Z,6280
2017-12-27T12:48:01.257Z,7284
2017-12-27T12:49:01.528Z,6040
2017-12-27T12:50:01.805Z,5844
2017-12-27T12:51:01.315Z,5744
2017-12-27T12:52:01.332Z,5780
2017-12-27T12:53:01.870Z,6172
2017-12-27T12:54:01.120Z,7920
2017-12-27T12:55:01.893Z,12632
2017-12-27T12:56:01.907Z,8044
2017-12-27T12:57:01.676Z,7228
2017-12-27T12:58:01.697Z,7172
2017-12-27T12:59:01.872Z,7796
2017-12-27T13:00:01.735Z,8112
2017-12-27T13:01:01.503Z,8624
2017-12-27T13:02:02.032Z,8632
2017-12-27T13:03:02.037Z,9216
2017-12-27T13:04:01.809Z,9164
2017-12-27T13:05:01.589Z,9088
2017-12-27T13:06:02.100Z,9968
2017-12-27T13:07:02.181Z,7696
2017-12-27T13:08:02.134Z,7116
2017-12-27T13:09:01.649Z,6740
2017-12-27T13:10:01.415Z,6544
2017-12-27T13:11:02.187Z,6656
2017-12-27T13:12:01.708Z,6576
2017-12-27T13:13:02.226Z,6436
2017-12-27T13:14:02.242Z,6328
2017-12-27T13:15:02.016Z,6072
2017-12-27T13:16:01.777Z,5812
2017-12-27T13:17:02.306Z,5504
2017-12-27T13:18:01.819Z,5220
2017-12-27T13:19:02.086Z,4892
2017-12-27T13:20:01.847Z,4568
2017-12-27T13:21:02.124Z,4240
2017-12-27T13:22:02.147Z,3868
2017-12-27T13:23:02.152Z,3488
2017-12-27T13:24:02.422Z,3192
2017-12-27T13:25:02.184Z,3012
2017-12-27T13:26:01.955Z,2928
2017-12-27T13:27:02.219Z,2892
2017-12-27T13:28:02.238Z,2832
2017-12-27T13:29:02.004Z,2672
2017-12-27T13:30:02.546Z,2432
2017-12-27T13:31:02.286Z,2160
2017-12-27T13:32:02.308Z,1876
2017-12-27T13:33:02.072Z,1640
2017-12-27T13:34:02.341Z,1496
2017-12-27T13:35:02.108Z,1388
2017-12-27T13:36:02.389Z,1280
2017-12-27T13:37:02.143Z,1192
2017-12-27T13:38:02.666Z,1144
2017-12-27T13:39:02.434Z,1132
2017-12-27T13:40:02.201Z,1136
2017-12-27T13:41:02.462Z,1152
2017-12-27T13:42:02.730Z,1176
2017-12-27T13:43:02.497Z,1196
2017-12-27T13:44:02.511Z,1220
2017-12-27T13:45:02.529Z,1248
2017-12-27T13:46:02.548Z,1272
2017-12-27T13:47:02.563Z,1292
2017-12-27T13:48:02.325Z,1316
2017-12-27T13:49:02.598Z,1340
2017-12-27T13:50:02.609Z,1352
2017-12-27T13:51:02.396Z,1352
2017-12-27T13:52:02.643Z,1356
2017-12-27T13:53:02.661Z,1368
2017-12-27T13:54:02.675Z,1372
2017-12-27T13:55:02.689Z,1372
2017-12-27T13:56:02.962Z,1356
2017-12-27T13:57:02.471Z,1344
2017-12-27T13:58:02.241Z,1332
2017-12-27T13:59:03.008Z,1328
2017-12-27T14:00:02.522Z,1312
2017-12-27T14:01:02.546Z,1276